createdAt,value
2023-02-16T00:00:19.795Z,95.82
2023-02-16T00:02:48.281Z,92.23
2023-02-16T00:05:32.641Z,92.78
2023-02-16T00:08:00.947Z,96.47
2023-02-16T00:10:33.275Z,92.30
2023-02-16T00:13:19.609Z,86.53
2023-02-16T00:15:47.479Z,89.63
2023-02-16T00:18:22.509Z,91.38
2023-02-16T00:20:50.136Z,92.20
2023-02-16T00:23:17.474Z,92.43
2023-02-16T00:25:45.044Z,92.75
2023-02-16T00:28:21.477Z,94.10
2023-02-16T00:30:50.934Z,88.78
2023-02-16T00:33:21.103Z,89.25
2023-02-16T00:35:49.546Z,89.25
2023-02-16T00:38:17.149Z,85.80
2023-02-16T00:40:50.095Z,88.38
2023-02-16T00:43:31.262Z,97.97
2023-02-16T00:46:00.211Z,88.03
2023-02-16T00:48:27.317Z,87.82
2023-02-16T00:50:54.736Z,86.07
2023-02-16T00:53:22.290Z,88.75
2023-02-16T00:55:49.768Z,92.60
2023-02-16T00:58:25.893Z,90.13
2023-02-16T01:00:56.089Z,90.18
2023-02-16T01:03:26.187Z,82.95
2023-02-16T01:06:13.952Z,86.97
2023-02-16T01:09:01.187Z,91.15
2023-02-16T01:11:29.538Z,88.82
2023-02-16T01:13:57.692Z,88.13
2023-02-16T01:16:35.545Z,90.65
2023-02-16T01:19:04.733Z,91.60
2023-02-16T01:21:34.082Z,85.60
2023-02-16T01:24:01.389Z,84.57
2023-02-16T01:26:30.532Z,81.85
2023-02-16T01:28:57.806Z,87.88
2023-02-16T01:31:25.412Z,86.78
2023-02-16T01:33:52.840Z,83.70
2023-02-16T01:36:29.995Z,80.65
2023-02-16T01:38:57.402Z,89.47
2023-02-16T01:41:24.784Z,84.88
2023-02-16T01:44:06.058Z,90.43
2023-02-16T01:46:57.935Z,89.25
2023-02-16T01:49:25.128Z,89.03
2023-02-16T01:52:31.224Z,84.00
2023-02-16T01:55:24.505Z,85.82
2023-02-16T01:58:01.312Z,85.25
2023-02-16T02:00:50.057Z,81.75
2023-02-16T02:03:43.020Z,84.63
2023-02-16T02:06:21.473Z,77.37
2023-02-16T02:08:57.195Z,82.70
2023-02-16T02:11:34.684Z,81.35
2023-02-16T02:14:14.131Z,83.93
2023-02-16T02:16:55.558Z,83.70
2023-02-16T02:19:25.529Z,80.07
2023-02-16T02:22:45.320Z,77.00
2023-02-16T02:25:40.647Z,84.32
2023-02-16T02:28:45.786Z,84.35
2023-02-16T02:31:31.388Z,82.80
2023-02-16T02:34:30.189Z,84.90
2023-02-16T02:36:57.403Z,80.65
2023-02-16T02:39:30.881Z,83.13
2023-02-16T02:42:17.320Z,88.95
2023-02-16T02:44:55.317Z,81.55
2023-02-16T02:47:22.722Z,84.85
2023-02-16T02:49:54.477Z,84.75
2023-02-16T02:52:22.972Z,89.78
2023-02-16T02:55:09.127Z,88.70
2023-02-16T02:58:08.663Z,87.15
2023-02-16T03:00:51.930Z,87.70
2023-02-16T03:03:43.385Z,86.38
2023-02-16T03:06:26.666Z,90.90
2023-02-16T03:09:05.370Z,92.45
2023-02-16T03:11:51.260Z,92.30
2023-02-16T03:14:26.652Z,90.85
2023-02-16T03:17:20.796Z,83.65
2023-02-16T03:20:10.500Z,84.18
2023-02-16T03:22:58.168Z,91.60
2023-02-16T03:25:53.463Z,92.80
2023-02-16T03:28:43.045Z,86.38
2023-02-16T03:31:22.724Z,91.68
2023-02-16T03:33:55.255Z,94.88
2023-02-16T03:36:28.222Z,93.97
2023-02-16T03:38:56.920Z,95.57
2023-02-16T03:41:26.697Z,94.55
2023-02-16T03:43:54.057Z,96.63
2023-02-16T03:46:21.958Z,91.50
2023-02-16T03:48:50.061Z,92.75
2023-02-16T03:51:17.584Z,93.32
2023-02-16T03:53:46.033Z,95.85
2023-02-16T03:56:13.800Z,93.07
2023-02-16T03:58:40.945Z,94.15
2023-02-16T04:01:08.429Z,90.82
2023-02-16T04:03:35.557Z,100.28
2023-02-16T04:06:04.122Z,94.25
2023-02-16T04:08:31.181Z,95.03
2023-02-16T04:10:58.966Z,90.22
2023-02-16T04:13:26.723Z,87.40
2023-02-16T04:15:54.208Z,93.97
2023-02-16T04:18:21.724Z,94.35
2023-02-16T04:20:49.164Z,94.20
2023-02-16T04:23:16.543Z,93.50
2023-02-16T04:25:44.085Z,88.15
2023-02-16T04:28:11.507Z,98.47
2023-02-16T04:30:39.081Z,97.07
2023-02-16T04:33:06.452Z,93.85
2023-02-16T04:35:34.988Z,91.75
2023-02-16T04:38:02.413Z,86.43
2023-02-16T04:40:30.812Z,89.07
2023-02-16T04:42:58.315Z,92.25
2023-02-16T04:45:25.720Z,90.43
2023-02-16T04:47:53.211Z,85.82
2023-02-16T04:50:20.775Z,87.75
2023-02-16T04:52:48.121Z,85.18
2023-02-16T04:55:17.693Z,88.65
2023-02-16T04:57:47.187Z,86.10
2023-02-16T05:00:16.886Z,100.72
2023-02-16T05:02:44.136Z,86.20
2023-02-16T05:05:11.618Z,90.63
2023-02-16T05:07:40.002Z,84.60
2023-02-16T05:10:07.832Z,84.38
2023-02-16T05:12:53.512Z,86.68
2023-02-16T05:15:20.926Z,93.10
2023-02-16T05:17:49.535Z,93.28
2023-02-16T05:20:18.945Z,93.07
2023-02-16T05:22:46.657Z,83.68
2023-02-16T05:25:13.910Z,91.43
2023-02-16T05:27:41.176Z,87.72
2023-02-16T05:30:10.197Z,86.15
2023-02-16T05:32:37.794Z,85.85
2023-02-16T05:35:06.892Z,89.90
2023-02-16T05:37:34.200Z,97.93
2023-02-16T05:40:01.806Z,93.97
2023-02-16T05:42:29.066Z,89.05
2023-02-16T05:44:56.607Z,98.65
2023-02-16T05:47:24.091Z,89.15
2023-02-16T05:49:51.550Z,95.95
2023-02-16T05:52:25.088Z,93.50
2023-02-16T05:54:52.560Z,91.10
2023-02-16T05:57:20.033Z,90.22
2023-02-16T05:59:47.174Z,93.55
2023-02-16T06:02:14.628Z,96.15
2023-02-16T06:04:41.662Z,87.43
2023-02-16T06:07:09.014Z,91.07
2023-02-16T06:09:42.417Z,91.72
2023-02-16T06:12:09.490Z,96.57
2023-02-16T06:14:37.941Z,95.75
2023-02-16T06:17:05.479Z,94.03
2023-02-16T06:19:33.869Z,90.47
2023-02-16T06:22:01.452Z,90.03
2023-02-16T06:24:29.839Z,90.40
2023-02-16T06:26:57.318Z,93.68
2023-02-16T06:29:24.723Z,91.57
2023-02-16T06:31:52.441Z,94.65
2023-02-16T06:34:19.737Z,82.32
2023-02-16T06:36:47.403Z,89.20
2023-02-16T06:39:14.587Z,88.65
2023-02-16T06:41:43.104Z,85.63
2023-02-16T06:44:13.760Z,85.50
2023-02-16T06:46:47.141Z,98.53
2023-02-16T06:49:18.602Z,93.90
2023-02-16T06:51:47.280Z,90.13
2023-02-16T06:54:17.426Z,94.30
2023-02-16T06:56:44.888Z,87.28
2023-02-16T06:59:13.571Z,85.97
2023-02-16T07:01:42.533Z,81.63
2023-02-16T07:04:11.228Z,86.30
2023-02-16T07:06:38.623Z,82.18
2023-02-16T07:09:07.468Z,78.88
2023-02-16T07:11:34.599Z,76.60
2023-02-16T07:14:02.084Z,81.18
2023-02-16T07:16:29.661Z,76.10
2023-02-16T07:18:57.057Z,74.03
2023-02-16T07:21:24.387Z,73.88
2023-02-16T07:23:51.976Z,74.78
2023-02-16T07:26:19.649Z,72.72
2023-02-16T07:28:46.924Z,72.53
2023-02-16T07:31:17.385Z,67.88
2023-02-16T07:33:45.777Z,65.35
2023-02-16T07:36:14.021Z,71.20
2023-02-16T07:38:42.253Z,66.20
2023-02-16T07:41:10.903Z,67.15
2023-02-16T07:43:38.747Z,65.90
2023-02-16T07:46:06.300Z,62.88
2023-02-16T07:48:33.788Z,62.22
2023-02-16T07:51:02.115Z,62.17
2023-02-16T07:53:30.673Z,60.28
2023-02-16T07:55:58.107Z,65.10
2023-02-16T07:58:28.417Z,57.63
2023-02-16T08:01:09.145Z,59.30
2023-02-16T08:03:36.297Z,58.72
2023-02-16T08:06:04.893Z,56.95
2023-02-16T08:08:32.531Z,57.92
2023-02-16T08:11:00.955Z,58.65
2023-02-16T08:13:30.241Z,63.17
2023-02-16T08:15:57.713Z,55.33
2023-02-16T08:18:25.159Z,56.38
2023-02-16T08:21:03.897Z,53.22
2023-02-16T08:23:32.940Z,55.92
2023-02-16T08:26:07.122Z,52.42
2023-02-16T08:28:34.437Z,52.15
2023-02-16T08:31:07.431Z,54.65
2023-02-16T08:33:35.269Z,55.28
2023-02-16T08:36:03.771Z,48.47
2023-02-16T08:38:34.686Z,50.97
2023-02-16T08:41:04.139Z,49.38
2023-02-16T08:43:32.836Z,48.22
2023-02-16T08:46:11.347Z,51.47
2023-02-16T08:48:40.215Z,49.55
2023-02-16T08:51:08.334Z,49.28
2023-02-16T08:53:35.693Z,50.13
2023-02-16T08:56:04.612Z,46.70
2023-02-16T08:58:32.692Z,46.15
2023-02-16T09:01:05.230Z,46.13
2023-02-16T09:03:32.987Z,44.60
2023-02-16T09:06:03.692Z,46.25
2023-02-16T09:08:33.713Z,46.25
2023-02-16T09:11:15.736Z,42.47
2023-02-16T09:13:45.275Z,44.08
2023-02-16T09:16:16.066Z,42.92
2023-02-16T09:18:45.297Z,40.03
2023-02-16T09:21:16.583Z,39.25
2023-02-16T09:23:49.365Z,39.78
2023-02-16T09:26:18.903Z,38.10
2023-02-16T09:28:48.943Z,38.97
2023-02-16T09:31:25.969Z,37.40
2023-02-16T09:34:02.426Z,37.25
2023-02-16T09:36:29.866Z,34.35
2023-02-16T09:38:59.925Z,36.83
2023-02-16T09:41:52.499Z,34.28
2023-02-16T09:44:54.895Z,37.35
2023-02-16T09:47:35.066Z,31.67
2023-02-16T09:50:52.551Z,33.08
2023-02-16T09:53:46.774Z,35.58
2023-02-16T09:56:38.252Z,32.60
2023-02-16T09:59:05.777Z,33.28
2023-02-16T10:02:21.619Z,32.90
2023-02-16T10:04:54.488Z,33.13
2023-02-16T10:07:58.952Z,33.80
2023-02-16T10:10:44.346Z,33.53
2023-02-16T10:13:23.401Z,31.38
2023-02-16T10:15:54.159Z,31.27
2023-02-16T10:18:38.685Z,35.22
2023-02-16T10:21:14.290Z,33.55
2023-02-16T10:23:48.025Z,35.58
2023-02-16T10:29:00.771Z,34.58
2023-02-16T10:31:38.942Z,34.55
2023-02-16T10:34:23.441Z,34.45
2023-02-16T10:37:21.559Z,36.55
2023-02-16T10:40:09.865Z,33.58
2023-02-16T10:43:25.871Z,31.48
2023-02-16T10:45:59.422Z,31.98
2023-02-16T10:48:27.534Z,30.98
2023-02-16T10:51:03.707Z,34.40
2023-02-16T10:53:53.215Z,31.80
2023-02-16T10:56:35.193Z,30.52
2023-02-16T10:59:08.073Z,36.58
2023-02-16T11:01:43.110Z,32.42
2023-02-16T11:04:30.384Z,33.10
2023-02-16T11:07:07.289Z,32.47
2023-02-16T11:09:35.026Z,30.27
2023-02-16T11:12:15.454Z,28.90
2023-02-16T11:14:49.540Z,34.05
2023-02-16T11:17:18.978Z,35.13
2023-02-16T11:20:01.595Z,32.85
2023-02-16T11:22:29.072Z,33.08
2023-02-16T11:24:56.778Z,31.52
2023-02-16T11:27:24.714Z,28.90
2023-02-16T11:30:12.379Z,33.95
2023-02-16T11:32:39.945Z,30.13
2023-02-16T11:35:10.457Z,33.40
2023-02-16T11:37:41.243Z,30.15
2023-02-16T11:40:25.081Z,31.17
2023-02-16T11:42:58.214Z,34.60
2023-02-16T11:45:33.401Z,27.45
2023-02-16T11:48:14.241Z,28.23
2023-02-16T11:50:57.476Z,28.92
2023-02-16T11:53:29.246Z,26.70
2023-02-16T11:56:30.436Z,26.58
2023-02-16T11:59:19.515Z,22.88
2023-02-16T12:02:09.369Z,24.75
2023-02-16T12:04:59.814Z,25.55
2023-02-16T12:07:33.306Z,24.17
2023-02-16T12:10:36.156Z,23.20
2023-02-16T12:13:35.550Z,26.80
2023-02-16T12:16:16.810Z,21.67
2023-02-16T12:19:07.877Z,22.00
2023-02-16T12:21:48.741Z,24.15
2023-02-16T12:24:44.721Z,23.58
2023-02-16T12:27:30.812Z,23.40
2023-02-16T12:30:29.014Z,22.33
2023-02-16T12:33:08.774Z,20.05
2023-02-16T12:35:49.814Z,22.83
2023-02-16T12:38:27.237Z,22.45
2023-02-16T12:41:29.495Z,20.27
2023-02-16T12:44:15.527Z,21.98
2023-02-16T12:46:46.097Z,22.92
2023-02-16T12:49:27.785Z,21.02
2023-02-16T12:52:05.625Z,27.02
2023-02-16T12:55:11.322Z,22.83
2023-02-16T12:57:52.374Z,24.30
2023-02-16T13:00:49.856Z,21.92
2023-02-16T13:03:39.175Z,24.13
2023-02-16T13:06:41.303Z,21.73
2023-02-16T13:09:36.642Z,26.40
2023-02-16T13:12:24.595Z,21.55
2023-02-16T13:15:19.345Z,22.77
2023-02-16T13:18:25.247Z,25.40
2023-02-16T13:21:11.284Z,27.42
2023-02-16T13:24:03.540Z,26.23
2023-02-16T13:26:41.050Z,27.95
2023-02-16T13:29:45.495Z,26.30
2023-02-16T13:32:49.038Z,25.77
2023-02-16T13:35:47.534Z,25.08
2023-02-16T13:38:45.067Z,25.77
2023-02-16T13:41:19.329Z,25.33
2023-02-16T13:44:24.484Z,27.15
2023-02-16T13:46:54.208Z,29.13
2023-02-16T13:49:57.111Z,26.55
2023-02-16T13:52:45.191Z,31.73
2023-02-16T13:55:32.264Z,28.30
2023-02-16T13:58:04.844Z,28.42
2023-02-16T14:00:57.561Z,34.53
2023-02-16T14:03:25.032Z,26.60
2023-02-16T14:05:56.399Z,25.40
2023-02-16T14:08:28.484Z,24.33
2023-02-16T14:10:57.617Z,27.40
2023-02-16T14:13:29.566Z,26.20
2023-02-16T14:16:02.246Z,29.38
2023-02-16T14:18:54.063Z,29.50
2023-02-16T14:21:44.266Z,33.10
2023-02-16T14:24:33.593Z,32.95
2023-02-16T14:27:07.111Z,34.67
2023-02-16T14:29:46.510Z,32.35
2023-02-16T14:32:21.795Z,30.08
2023-02-16T14:34:56.441Z,32.53
2023-02-16T14:37:41.594Z,32.30
2023-02-16T14:40:16.634Z,30.98
2023-02-16T14:42:58.580Z,30.95
2023-02-16T14:45:54.190Z,32.88
2023-02-16T14:48:40.387Z,39.05
2023-02-16T14:51:17.197Z,34.53
2023-02-16T14:54:02.968Z,37.22
2023-02-16T14:56:39.473Z,40.17
2023-02-16T14:59:12.946Z,42.58
2023-02-16T15:01:45.062Z,40.97
2023-02-16T15:04:12.711Z,39.63
2023-02-16T15:06:47.096Z,37.20
2023-02-16T15:09:24.260Z,42.17
2023-02-16T15:12:16.399Z,44.25
2023-02-16T15:14:48.683Z,40.97
2023-02-16T15:17:36.489Z,43.40
2023-02-16T15:20:11.192Z,46.83
2023-02-16T15:23:03.738Z,52.28
2023-02-16T15:25:34.268Z,47.63
2023-02-16T15:28:04.692Z,46.90
2023-02-16T15:30:47.412Z,47.05
2023-02-16T15:33:24.901Z,53.75
2023-02-16T15:36:00.399Z,48.92
2023-02-16T15:38:33.164Z,53.80
2023-02-16T15:41:04.255Z,45.87
2023-02-16T15:43:51.191Z,41.92
2023-02-16T15:46:28.863Z,49.28
2023-02-16T15:48:57.475Z,47.60
2023-02-16T15:51:34.283Z,47.65
2023-02-16T15:54:04.352Z,44.75
2023-02-16T15:56:45.517Z,42.75
2023-02-16T15:59:34.385Z,54.30
2023-02-16T16:02:26.874Z,41.42
2023-02-16T16:05:00.538Z,49.75
2023-02-16T16:07:36.715Z,38.25
2023-02-16T16:10:20.970Z,37.47
2023-02-16T16:12:50.596Z,37.90
2023-02-16T16:15:25.383Z,39.17
2023-02-16T16:17:56.253Z,41.17
2023-02-16T16:20:38.413Z,35.63
2023-02-16T16:23:27.453Z,35.90
2023-02-16T16:25:57.329Z,33.70
2023-02-16T16:28:28.377Z,37.22
2023-02-16T16:31:11.478Z,33.25
2023-02-16T16:34:02.792Z,34.78
2023-02-16T16:36:36.687Z,33.70
2023-02-16T16:39:19.378Z,33.95
2023-02-16T16:42:09.434Z,37.50
2023-02-16T16:44:42.076Z,33.53
2023-02-16T16:47:27.190Z,33.20
2023-02-16T16:50:15.668Z,34.83
2023-02-16T16:52:46.825Z,33.40
2023-02-16T16:55:27.542Z,33.65
2023-02-16T16:57:58.274Z,33.25
2023-02-16T17:00:35.316Z,35.42
2023-02-16T17:03:12.419Z,39.08
2023-02-16T17:05:42.327Z,44.17
2023-02-16T17:08:12.025Z,50.70
2023-02-16T17:10:41.980Z,50.92
2023-02-16T17:13:17.486Z,43.60
2023-02-16T17:16:04.680Z,47.92
2023-02-16T17:18:35.139Z,47.42
2023-02-16T17:21:05.985Z,44.63
2023-02-16T17:23:38.296Z,47.05
2023-02-16T17:26:06.786Z,47.92
2023-02-16T17:28:37.808Z,50.88
2023-02-16T17:31:15.457Z,46.33
2023-02-16T17:33:45.125Z,43.53
2023-02-16T17:36:16.484Z,48.92
2023-02-16T17:38:45.950Z,51.63
2023-02-16T17:41:29.075Z,44.83
2023-02-16T17:43:56.888Z,48.60
2023-02-16T17:46:29.094Z,55.47
2023-02-16T17:48:57.097Z,48.55
2023-02-16T17:51:27.101Z,53.80
2023-02-16T17:53:55.153Z,45.17
2023-02-16T17:56:26.591Z,46.10
2023-02-16T17:58:54.598Z,49.53
2023-02-16T18:01:32.645Z,52.92
2023-02-16T18:04:00.802Z,52.15
2023-02-16T18:06:34.900Z,49.08
2023-02-16T18:09:03.229Z,48.17
2023-02-16T18:11:32.085Z,52.15
2023-02-16T18:14:03.993Z,46.33
2023-02-16T18:16:32.831Z,48.90
2023-02-16T18:19:03.693Z,41.95
2023-02-16T18:21:32.042Z,43.13
2023-02-16T18:23:59.663Z,42.92
2023-02-16T18:26:32.904Z,45.95
2023-02-16T18:29:01.377Z,43.70
2023-02-16T18:31:29.770Z,56.92
2023-02-16T18:34:08.035Z,58.60
2023-02-16T18:36:39.103Z,55.78
2023-02-16T18:39:09.327Z,55.38
2023-02-16T18:41:38.006Z,52.83
2023-02-16T18:44:07.560Z,49.35
2023-02-16T18:46:36.698Z,50.50
2023-02-16T18:49:04.605Z,44.60
2023-02-16T18:51:34.613Z,48.55
2023-02-16T18:54:02.864Z,53.42
2023-02-16T18:56:32.344Z,52.25
2023-02-16T18:59:02.128Z,52.80
2023-02-16T19:01:42.298Z,46.42
2023-02-16T19:04:16.295Z,48.80
2023-02-16T19:09:32.385Z,47.05
2023-02-16T19:12:00.283Z,47.80
2023-02-16T19:14:30.216Z,49.80
2023-02-16T19:17:00.392Z,49.53
2023-02-16T19:19:31.071Z,45.78
2023-02-16T19:22:02.502Z,47.85
2023-02-16T19:24:31.899Z,46.13
2023-02-16T19:27:01.784Z,45.88
2023-02-16T19:29:31.774Z,53.95
2023-02-16T19:31:59.965Z,56.67
2023-02-16T19:34:29.419Z,48.33
2023-02-16T19:36:57.547Z,48.30
2023-02-16T19:39:26.154Z,45.00
2023-02-16T19:41:56.977Z,42.03
2023-02-16T19:44:34.191Z,43.20
2023-02-16T19:47:04.021Z,44.13
2023-02-16T19:49:39.612Z,45.28
2023-02-16T19:52:13.125Z,41.75
2023-02-16T19:57:09.069Z,40.92
2023-02-16T19:59:37.114Z,41.92
2023-02-16T20:02:06.079Z,44.13
2023-02-16T20:04:36.877Z,45.63
2023-02-16T20:07:11.330Z,49.20
2023-02-16T20:09:41.784Z,48.42
2023-02-16T20:12:10.767Z,48.25
2023-02-16T20:14:39.107Z,46.67
2023-02-16T20:17:07.363Z,49.88
2023-02-16T20:19:34.932Z,49.72
2023-02-16T20:22:15.616Z,47.00
2023-02-16T20:24:45.759Z,49.90
2023-02-16T20:27:15.514Z,49.53
2023-02-16T20:29:50.904Z,53.70
2023-02-16T20:32:20.290Z,51.42
2023-02-16T20:34:50.837Z,51.35
2023-02-16T20:37:19.270Z,53.05
2023-02-16T20:39:48.845Z,54.15
2023-02-16T20:42:17.512Z,51.03
2023-02-16T20:44:45.632Z,51.88
2023-02-16T20:47:13.507Z,54.88
2023-02-16T20:49:42.422Z,53.42
2023-02-16T20:52:11.042Z,52.30
2023-02-16T20:54:42.122Z,49.17
2023-02-16T20:57:25.696Z,45.92
2023-02-16T20:59:56.338Z,49.55
2023-02-16T21:02:25.954Z,51.65
2023-02-16T21:04:55.206Z,45.85
2023-02-16T21:07:24.106Z,47.75
2023-02-16T21:09:54.560Z,49.80
2023-02-16T21:12:22.585Z,52.50
2023-02-16T21:14:53.665Z,51.17
2023-02-16T21:17:23.816Z,53.88
2023-02-16T21:19:52.466Z,48.85
2023-02-16T21:22:25.139Z,50.28
2023-02-16T21:24:53.584Z,51.73
2023-02-16T21:27:22.383Z,52.58
2023-02-16T21:29:50.595Z,49.88
2023-02-16T21:32:24.887Z,54.33
2023-02-16T21:34:52.973Z,51.83
2023-02-16T21:37:20.560Z,55.55
2023-02-16T21:40:06.419Z,55.25
2023-02-16T21:42:36.161Z,58.63
2023-02-16T21:45:14.368Z,59.55
2023-02-16T21:48:04.454Z,55.22
2023-02-16T21:50:41.110Z,57.63
2023-02-16T21:53:09.686Z,58.85
2023-02-16T21:55:57.730Z,58.67
2023-02-16T21:58:30.530Z,60.33
2023-02-16T22:00:57.841Z,58.75
2023-02-16T22:03:26.192Z,60.88
2023-02-16T22:05:53.856Z,59.25
2023-02-16T22:08:20.970Z,63.30
2023-02-16T22:10:48.171Z,59.10
2023-02-16T22:13:17.607Z,62.90
2023-02-16T22:15:44.945Z,67.07
2023-02-16T22:18:12.460Z,66.63
2023-02-16T22:20:40.986Z,69.28
2023-02-16T22:23:08.020Z,67.05
2023-02-16T22:25:40.542Z,65.88
2023-02-16T22:28:09.827Z,60.80
2023-02-16T22:30:37.568Z,74.20
2023-02-16T22:33:04.903Z,77.28
2023-02-16T22:35:31.870Z,83.07
2023-02-16T22:38:01.409Z,85.40
2023-02-16T22:40:28.860Z,74.22
2023-02-16T22:42:56.273Z,77.82
2023-02-16T22:45:23.758Z,79.70
2023-02-16T22:47:51.203Z,84.80
2023-02-16T22:50:18.674Z,87.50
2023-02-16T22:52:47.314Z,89.05
2023-02-16T22:55:15.604Z,74.93
2023-02-16T22:57:44.052Z,77.13
2023-02-16T23:00:15.386Z,86.43
2023-02-16T23:02:43.635Z,78.13
2023-02-16T23:05:11.105Z,72.57
2023-02-16T23:07:38.168Z,70.45
2023-02-16T23:10:06.137Z,65.72
2023-02-16T23:12:33.425Z,71.50
2023-02-16T23:15:00.893Z,68.28
2023-02-16T23:17:28.337Z,64.95
2023-02-16T23:19:55.802Z,63.13
2023-02-16T23:22:23.384Z,69.95
2023-02-16T23:25:10.598Z,65.10
2023-02-16T23:27:38.182Z,67.15
2023-02-16T23:30:07.310Z,59.83
2023-02-16T23:32:34.534Z,62.78
2023-02-16T23:35:03.564Z,58.97
2023-02-16T23:37:31.806Z,54.70
2023-02-16T23:40:00.303Z,58.92
2023-02-16T23:42:28.530Z,63.15
2023-02-16T23:44:56.021Z,67.80
2023-02-16T23:47:23.763Z,55.65
2023-02-16T23:49:57.001Z,50.70
2023-02-16T23:52:24.425Z,54.38
2023-02-16T23:54:51.917Z,52.17
2023-02-16T23:57:19.420Z,55.53
2023-02-16T23:59:46.810Z,51.97
